Terminal Aerodrome Forecast
Issued by NWS

Home | Current Version | Previous Version | Text Only | Print | Product List | Glossary On
Versions: 1 2 3 4 5 6 7 8 9 10 11 12 13 14 15 16
127
FTUS42 KMHX 212336
TAFOAJ
TAF
KOAJ 212336Z 2200/2224 VRB04KT P6SM -SHRA SCT009 OVC015
     FM220100 VRB04KT 5SM -SHRA VCTS OVC007CB
     FM220500 20007KT 3SM BR BKN005
     FM220900 21007KT 1/2SM FG BKN002
     FM221300 23005KT 3SM SHRA VCTS OVC002CB
     FM221600 21007KT 3SM SHRA VCTS OVC015CB
      AMD LTD TO CLD VIS AND WIND=

USA.gov is the U.S. government's official web portal to all federal, state and local government web resources and services.